Time;durP1;ratioP1;P1;durP2;ratioP2;P2;SDS_P1;SDS_P2;PMS_P1;PMS_P2;Temp;Humidity;BMP_temperature;BMP_pressure;BME280_temperature;BME280_humidity;BME280_pressure;Samples;Min_cycle;Max_cycle;Signal;HPM_P1;HPM_P2
2023/05/11 00:01:51;;;;;;;16.45;14.75;;;14.00;99.90;;;;;;5097602;27;20120;-86
2023/05/11 00:04:16;;;;;;;17.73;16.02;;;14.10;99.90;;;;;;5097656;27;20043;-86
2023/05/11 00:06:42;;;;;;;14.57;10.93;;;14.10;99.90;;;;;;5097494;27;20070;-87
2023/05/11 00:09:08;;;;;;;15.82;9.85;;;14.10;99.90;;;;;;5097660;27;20039;-86
2023/05/11 00:11:34;;;;;;;18.67;16.85;;;14.00;99.90;;;;;;5097306;27;20406;-86
2023/05/11 00:14:01;;;;;;;21.10;19.05;;;14.10;99.90;;;;;;5114456;27;20138;-87
2023/05/11 00:16:26;;;;;;;20.65;18.55;;;14.10;99.90;;;;;;5097376;28;20067;-86
2023/05/11 00:18:52;;;;;;;20.45;18.48;;;14.10;99.90;;;;;;5097443;27;20089;-86
2023/05/11 00:21:17;;;;;;;18.90;17.10;;;14.10;99.90;;;;;;5114396;27;20088;-86
2023/05/11 00:23:43;;;;;;;14.40;9.38;;;14.20;99.90;;;;;;5114504;28;20578;-87
2023/05/11 00:26:09;;;;;;;15.68;10.75;;;14.10;99.90;;;;;;5097456;28;20080;-87
2023/05/11 00:28:35;;;;;;;21.45;19.45;;;14.00;99.90;;;;;;5097215;28;20553;-86
2023/05/11 00:31:01;;;;;;;16.67;10.52;;;14.10;99.90;;;;;;5084390;28;20036;-86
2023/05/11 00:33:26;;;;;;;17.85;11.63;;;14.00;99.90;;;;;;5084452;28;20063;-86
2023/05/11 00:35:52;;;;;;;19.40;17.52;;;14.00;99.90;;;;;;5065774;28;20064;-86
2023/05/11 00:38:17;;;;;;;19.77;17.77;;;14.00;99.90;;;;;;5066700;28;20031;-86
2023/05/11 00:40:43;;;;;;;16.40;10.88;;;14.10;99.90;;;;;;5067010;28;20071;-86
2023/05/11 00:43:09;;;;;;;20.83;18.83;;;14.00;99.90;;;;;;5065149;28;20054;-86
2023/05/11 00:45:35;;;;;;;16.45;10.98;;;14.00;99.90;;;;;;5067174;28;20032;-86
2023/05/11 00:48:00;;;;;;;14.32;9.02;;;14.00;99.90;;;;;;5083687;28;20036;-86
2023/05/11 00:50:26;;;;;;;16.00;11.02;;;13.90;99.90;;;;;;5065245;28;20055;-86
2023/05/11 00:52:52;;;;;;;15.40;11.70;;;13.90;99.90;;;;;;5083895;28;20031;-86
2023/05/11 00:55:20;;;;;;;16.75;9.90;;;13.90;99.90;;;;;;5066315;28;20162;-86
2023/05/11 00:57:45;;;;;;;19.17;11.82;;;13.80;99.90;;;;;;5099959;28;20044;-86
2023/05/11 01:00:12;;;;;;;18.80;16.95;;;13.80;99.90;;;;;;5083614;28;20038;-86
2023/05/11 01:02:38;;;;;;;15.88;11.27;;;13.90;99.90;;;;;;5066470;28;20046;-87
2023/05/11 01:05:04;;;;;;;19.65;17.75;;;13.90;99.90;;;;;;5067693;28;20032;-86
2023/05/11 01:08:13;;;;;;;19.33;16.95;;;13.90;99.90;;;;;;5071067;28;20117;-87
2023/05/11 01:10:47;;;;;;;14.48;8.48;;;14.00;99.90;;;;;;5077578;27;20455;-86
2023/05/11 01:13:26;;;;;;;20.60;18.50;;;13.80;99.90;;;;;;5090472;27;20373;-86
2023/05/11 01:15:55;;;;;;;18.17;11.85;;;13.90;99.90;;;;;;5105742;27;20032;-86
2023/05/11 01:18:59;;;;;;;21.55;19.35;;;13.80;99.90;;;;;;5088838;27;20461;-86
2023/05/11 01:21:28;;;;;;;20.63;18.55;;;13.90;99.90;;;;;;5071092;27;20500;-86
2023/05/11 01:24:16;;;;;;;15.00;9.38;;;13.80;99.90;;;;;;5117839;27;20500;-87
2023/05/11 01:26:54;;;;;;;20.85;18.77;;;13.80;99.90;;;;;;5101516;28;20523;-87
2023/05/11 01:29:41;;;;;;;16.55;10.32;;;13.80;99.90;;;;;;5080431;28;20051;-87
2023/05/11 01:32:17;;;;;;;21.30;19.20;;;13.70;99.90;;;;;;5080133;28;20046;-87
2023/05/11 01:34:44;;;;;;;22.48;20.10;;;13.80;99.90;;;;;;5096923;28;20382;-87
2023/05/11 01:37:13;;;;;;;17.33;10.07;;;13.80;99.90;;;;;;5097234;28;20058;-86
2023/05/11 01:39:47;;;;;;;16.60;9.85;;;13.70;99.90;;;;;;5079582;28;20032;-87
2023/05/11 01:42:14;;;;;;;21.15;11.57;;;13.70;99.90;;;;;;5080209;28;20405;-87
2023/05/11 01:44:45;;;;;;;18.65;9.55;;;13.70;99.90;;;;;;5097263;28;20043;-87
2023/05/11 01:47:12;;;;;;;21.58;19.45;;;13.60;99.90;;;;;;5079975;28;20062;-87
2023/05/11 01:49:41;;;;;;;23.92;21.52;;;13.70;99.90;;;;;;5096382;28;20074;-87
2023/05/11 01:52:08;;;;;;;18.77;10.88;;;13.70;99.90;;;;;;5079649;28;20043;-87
2023/05/11 01:54:36;;;;;;;18.17;10.27;;;13.70;99.90;;;;;;5079989;28;20035;-87
2023/05/11 01:57:03;;;;;;;23.92;21.48;;;13.60;99.90;;;;;;5079517;28;20048;-87
2023/05/11 01:59:31;;;;;;;24.55;21.90;;;13.70;99.90;;;;;;5079520;28;20035;-87
2023/05/11 02:01:57;;;;;;;19.83;12.20;;;13.70;99.90;;;;;;5096772;28;20051;-87
2023/05/11 02:04:24;;;;;;;17.10;9.77;;;13.70;99.90;;;;;;5096638;28;20035;-87
2023/05/11 02:06:52;;;;;;;24.58;21.98;;;13.60;99.90;;;;;;5079389;28;20046;-87
2023/05/11 02:09:20;;;;;;;20.42;12.55;;;13.70;99.90;;;;;;5079521;28;20679;-87
2023/05/11 02:11:47;;;;;;;21.17;12.10;;;13.60;99.90;;;;;;5079183;28;20032;-86
2023/05/11 02:14:16;;;;;;;18.35;11.10;;;13.60;99.90;;;;;;5096531;28;20042;-86
2023/05/11 02:16:44;;;;;;;20.75;11.48;;;13.50;99.90;;;;;;5078879;28;20127;-86
2023/05/11 02:19:12;;;;;;;26.90;24.10;;;13.50;99.90;;;;;;5096269;28;20393;-87
2023/05/11 02:21:40;;;;;;;20.08;12.65;;;13.60;99.90;;;;;;5079546;28;20043;-87
2023/05/11 02:24:07;;;;;;;21.90;12.63;;;13.60;99.90;;;;;;5096448;28;20553;-87
2023/05/11 02:26:33;;;;;;;22.55;12.27;;;13.50;99.90;;;;;;5096273;28;20079;-87
2023/05/11 02:28:59;;;;;;;26.08;23.15;;;13.50;99.90;;;;;;5079169;28;20078;-86
2023/05/11 02:31:27;;;;;;;22.75;13.63;;;13.60;99.90;;;;;;5095681;28;20040;-87
2023/05/11 02:33:59;;;;;;;23.70;15.68;;;13.50;99.90;;;;;;5096083;28;20043;-87
2023/05/11 02:36:28;;;;;;;27.85;24.85;;;13.50;99.90;;;;;;5095790;28;20050;-87
2023/05/11 02:39:00;;;;;;;30.88;26.60;;;13.60;99.90;;;;;;5079385;28;20504;-88
2023/05/11 02:41:28;;;;;;;20.45;11.68;;;13.60;99.90;;;;;;5078786;28;20051;-88
2023/05/11 02:44:00;;;;;;;28.67;25.58;;;13.60;99.90;;;;;;5095635;28;20047;-88
2023/05/11 02:46:30;;;;;;;23.73;15.60;;;13.60;99.90;;;;;;5095554;28;20039;-88
2023/05/11 02:48:59;;;;;;;30.63;26.90;;;13.60;99.90;;;;;;5096087;28;20418;-88
2023/05/11 02:51:38;;;;;;;23.60;13.10;;;13.60;99.90;;;;;;5078431;28;20035;-88
2023/05/11 02:54:09;;;;;;;23.15;12.25;;;13.50;99.90;;;;;;5095444;28;20035;-88
2023/05/11 02:56:35;;;;;;;25.02;15.18;;;13.50;99.90;;;;;;5095252;28;20035;-88
2023/05/11 02:59:02;;;;;;;24.85;14.70;;;13.50;99.90;;;;;;5078674;28;20476;-87
2023/05/11 03:01:28;;;;;;;24.55;16.25;;;13.40;99.90;;;;;;5094978;28;20047;-88
2023/05/11 03:03:53;;;;;;;29.10;25.90;;;13.40;99.90;;;;;;5095531;28;20044;-88
2023/05/11 03:06:19;;;;;;;31.48;27.52;;;13.50;99.90;;;;;;5095277;28;20515;-88
2023/05/11 03:08:45;;;;;;;24.83;14.15;;;13.60;99.90;;;;;;5078537;28;20081;-88
2023/05/11 03:11:13;;;;;;;25.13;13.85;;;13.50;99.90;;;;;;5094838;28;20254;-88
2023/05/11 03:13:43;;;;;;;32.72;28.33;;;13.40;99.90;;;;;;5095105;28;20450;-88
2023/05/11 03:16:11;;;;;;;25.00;15.88;;;13.50;99.90;;;;;;5078303;28;20065;-88
2023/05/11 03:18:38;;;;;;;25.17;16.05;;;13.50;99.90;;;;;;5078096;28;20074;-88
2023/05/11 03:21:05;;;;;;;35.08;29.38;;;13.40;99.90;;;;;;5094677;28;20547;-88
2023/05/11 03:23:33;;;;;;;30.38;16.70;;;13.50;99.90;;;;;;5094896;28;20035;-88
2023/05/11 03:26:00;;;;;;;26.67;14.93;;;13.40;99.90;;;;;;5077712;28;20050;-88
2023/05/11 03:28:26;;;;;;;30.30;17.85;;;13.40;99.90;;;;;;5093999;28;20031;-88
2023/05/11 03:30:53;;;;;;;30.23;18.80;;;13.40;99.90;;;;;;5077553;28;20039;-88
2023/05/11 03:33:19;;;;;;;37.38;32.50;;;13.30;99.90;;;;;;5077841;28;20118;-88
2023/05/11 03:35:48;;;;;;;27.08;15.65;;;13.40;99.90;;;;;;5094730;28;20092;-88
2023/05/11 03:38:15;;;;;;;30.27;17.60;;;13.40;99.90;;;;;;5077912;28;20515;-88
2023/05/11 03:40:42;;;;;;;29.95;18.25;;;13.30;99.90;;;;;;5077260;28;20046;-88
2023/05/11 03:43:11;;;;;;;39.88;32.97;;;13.30;99.90;;;;;;5094580;28;20035;-88
2023/05/11 03:45:38;;;;;;;30.70;17.73;;;13.40;99.90;;;;;;5112775;28;20500;-88
2023/05/11 03:48:05;;;;;;;28.17;16.77;;;13.40;99.90;;;;;;5094461;28;20077;-88
2023/05/11 03:50:31;;;;;;;27.70;16.38;;;13.30;99.90;;;;;;5077397;28;20051;-88
2023/05/11 03:52:58;;;;;;;25.30;13.68;;;13.30;99.90;;;;;;5077378;28;20039;-88
2023/05/11 03:55:25;;;;;;;32.20;27.55;;;13.20;99.90;;;;;;5094365;28;20126;-89
2023/05/11 03:57:51;;;;;;;26.45;15.90;;;13.30;99.90;;;;;;5077625;28;20058;-89
2023/05/11 04:00:17;;;;;;;28.25;24.48;;;13.30;99.90;;;;;;5094098;28;20408;-88
2023/05/11 04:02:43;;;;;;;21.20;11.90;;;13.30;99.90;;;;;;5094383;28;20039;-88
2023/05/11 04:05:10;;;;;;;23.60;13.80;;;13.30;99.90;;;;;;5077153;28;20047;-88
2023/05/11 04:07:36;;;;;;;21.50;12.07;;;13.20;99.90;;;;;;5112845;28;20393;-89
2023/05/11 04:10:03;;;;;;;24.88;22.17;;;13.20;99.90;;;;;;5094215;28;20048;-89
2023/05/11 04:12:29;;;;;;;19.70;10.80;;;13.30;99.90;;;;;;5077244;28;20031;-88
2023/05/11 04:14:54;;;;;;;23.02;13.75;;;13.20;99.90;;;;;;5077252;28;20038;-88
2023/05/11 04:17:20;;;;;;;23.80;14.15;;;13.20;99.90;;;;;;5094114;28;20098;-89
2023/05/11 04:19:46;;;;;;;26.65;23.60;;;13.20;99.90;;;;;;5076958;28;20078;-88
2023/05/11 04:22:11;;;;;;;21.83;12.15;;;13.20;99.90;;;;;;5077640;28;20046;-89
2023/05/11 04:24:37;;;;;;;21.65;11.73;;;13.20;99.90;;;;;;5093962;28;20440;-88
2023/05/11 04:27:03;;;;;;;21.05;11.73;;;13.10;99.90;;;;;;5094068;28;20039;-88
2023/05/11 04:29:29;;;;;;;22.33;12.82;;;13.10;99.90;;;;;;5093742;28;20404;-88
2023/05/11 04:31:55;;;;;;;23.88;13.35;;;13.10;99.90;;;;;;5077254;28;20388;-88
2023/05/11 04:34:21;;;;;;;29.73;26.52;;;13.10;99.90;;;;;;5077073;28;20036;-88
2023/05/11 04:36:47;;;;;;;22.50;14.63;;;13.20;99.90;;;;;;5076965;28;20032;-88
2023/05/11 04:39:14;;;;;;;21.35;11.48;;;13.20;99.90;;;;;;5077977;28;20032;-88
2023/05/11 04:41:40;;;;;;;29.90;25.02;;;13.20;99.90;;;;;;5081102;28;20150;-88
2023/05/11 04:44:06;;;;;;;20.90;12.15;;;13.20;99.90;;;;;;5098044;28;20460;-88
2023/05/11 04:46:31;;;;;;;23.40;13.80;;;13.20;99.90;;;;;;5081373;28;20424;-88
2023/05/11 04:48:57;;;;;;;27.63;24.60;;;13.20;99.90;;;;;;5097909;28;20032;-88
2023/05/11 04:51:22;;;;;;;22.15;13.63;;;13.20;99.90;;;;;;5078348;28;20108;-88
2023/05/11 04:53:48;;;;;;;27.67;24.73;;;13.20;99.90;;;;;;5096769;28;20118;-88
2023/05/11 04:56:13;;;;;;;24.08;12.43;;;13.30;99.90;;;;;;5097523;28;20046;-88
2023/05/11 04:58:39;;;;;;;27.25;23.65;;;13.30;99.90;;;;;;5096468;28;20493;-89
2023/05/11 05:01:05;;;;;;;26.85;23.95;;;13.30;99.90;;;;;;5079356;28;20031;-89
2023/05/11 05:03:31;;;;;;;22.23;12.43;;;13.40;99.90;;;;;;5096944;28;20088;-88
2023/05/11 05:05:56;;;;;;;24.25;14.20;;;13.30;99.90;;;;;;5096297;28;20064;-88
2023/05/11 05:08:22;;;;;;;23.80;13.82;;;13.30;99.90;;;;;;5079683;28;20047;-88
2023/05/11 05:10:47;;;;;;;26.73;23.83;;;13.30;99.90;;;;;;5079423;28;20036;-88
2023/05/11 05:13:15;;;;;;;28.48;25.40;;;13.40;99.90;;;;;;5079479;28;20074;-88
2023/05/11 05:15:41;;;;;;;20.50;11.75;;;13.40;99.90;;;;;;5079592;28;20523;-89
2023/05/11 05:18:07;;;;;;;21.92;11.85;;;13.40;99.90;;;;;;5079432;28;20031;-87
2023/05/11 05:20:33;;;;;;;21.40;11.95;;;13.40;99.90;;;;;;5079096;28;20101;-88
2023/05/11 05:23:00;;;;;;;26.55;23.20;;;13.30;99.90;;;;;;5079442;28;20039;-88
2023/05/11 05:25:25;;;;;;;22.25;11.45;;;13.40;99.90;;;;;;5079296;28;20097;-88
2023/05/11 05:27:51;;;;;;;18.08;10.57;;;13.40;99.90;;;;;;5096291;28;20083;-87
2023/05/11 05:30:17;;;;;;;19.55;17.00;;;13.40;99.90;;;;;;5096433;28;20047;-88
2023/05/11 05:32:43;;;;;;;18.55;10.77;;;13.50;99.90;;;;;;5114290;28;20039;-88
2023/05/11 05:35:08;;;;;;;15.20;9.75;;;13.60;99.90;;;;;;5079260;28;20108;-89
2023/05/11 05:37:36;;;;;;;18.33;10.15;;;13.50;99.90;;;;;;5079796;28;20040;-88
2023/05/11 05:40:02;;;;;;;16.00;8.95;;;13.50;99.90;;;;;;5079275;28;20167;-89
2023/05/11 05:42:27;;;;;;;20.58;18.38;;;13.50;99.90;;;;;;5096117;28;20092;-88
2023/05/11 05:44:53;;;;;;;19.17;9.90;;;13.60;99.90;;;;;;5079408;28;20048;-88
2023/05/11 05:47:19;;;;;;;17.70;9.95;;;13.60;99.90;;;;;;5096456;28;20043;-88
2023/05/11 05:49:44;;;;;;;16.83;10.48;;;13.60;99.90;;;;;;5096348;28;20040;-89
2023/05/11 05:52:10;;;;;;;17.85;11.30;;;13.60;99.90;;;;;;5077653;28;20165;-88
2023/05/11 05:54:36;;;;;;;20.20;18.08;;;13.60;99.90;;;;;;5114328;28;20057;-87
2023/05/11 05:57:01;;;;;;;17.15;10.55;;;13.70;99.90;;;;;;5079371;28;20080;-88
2023/05/11 05:59:27;;;;;;;20.70;18.27;;;13.70;99.90;;;;;;5079338;28;20104;-88
2023/05/11 06:01:52;;;;;;;17.83;10.45;;;13.70;99.90;;;;;;5079502;28;20043;-88
2023/05/11 06:04:18;;;;;;;19.88;10.07;;;13.70;99.90;;;;;;5096321;28;20047;-88
2023/05/11 06:06:44;;;;;;;18.80;11.63;;;13.70;99.90;;;;;;5079369;28;20519;-88
2023/05/11 06:09:10;;;;;;;22.35;20.00;;;13.70;99.90;;;;;;5078289;28;20503;-88
2023/05/11 06:11:37;;;;;;;22.13;19.63;;;13.80;99.90;;;;;;5078470;28;20446;-88
2023/05/11 06:14:02;;;;;;;23.75;20.90;;;13.80;99.90;;;;;;5078978;28;20031;-88
2023/05/11 06:16:29;;;;;;;20.15;10.52;;;13.90;99.90;;;;;;5076210;28;20431;-88
2023/05/11 06:18:55;;;;;;;19.48;11.43;;;13.90;99.90;;;;;;5106632;27;20640;-88
2023/05/11 06:21:20;;;;;;;20.38;12.55;;;13.80;99.90;;;;;;5096000;27;20661;-88
2023/05/11 06:23:46;;;;;;;20.05;12.25;;;13.80;99.90;;;;;;5092222;27;20408;-89
2023/05/11 06:26:12;;;;;;;19.23;10.32;;;13.80;99.90;;;;;;5098761;27;20043;-88
2023/05/11 06:28:37;;;;;;;23.17;20.73;;;13.80;99.90;;;;;;5116285;27;20038;-88
2023/05/11 06:31:03;;;;;;;23.38;20.58;;;13.90;99.90;;;;;;5097956;27;20626;-88
2023/05/11 06:33:30;;;;;;;20.25;11.60;;;14.00;99.90;;;;;;5115480;27;20050;-88
2023/05/11 06:35:56;;;;;;;21.92;19.50;;;13.90;99.90;;;;;;5115703;27;20438;-88
2023/05/11 06:38:21;;;;;;;23.08;20.50;;;13.90;99.90;;;;;;5098060;27;20037;-88
2023/05/11 06:40:51;;;;;;;20.98;10.85;;;14.00;99.90;;;;;;5097578;27;20031;-88
2023/05/11 06:43:17;;;;;;;19.95;10.95;;;13.90;99.90;;;;;;5133954;27;20058;-88
2023/05/11 06:45:46;;;;;;;23.33;20.83;;;13.90;99.90;;;;;;5098322;27;20496;-88
2023/05/11 06:48:12;;;;;;;21.48;12.68;;;13.90;99.90;;;;;;5115255;27;20618;-88
2023/05/11 06:50:38;;;;;;;24.45;21.38;;;13.90;99.90;;;;;;5097752;27;20043;-88
2023/05/11 06:53:04;;;;;;;21.83;10.88;;;14.00;99.90;;;;;;5098567;27;20042;-88
2023/05/11 06:55:29;;;;;;;22.90;13.75;;;13.90;99.90;;;;;;5115751;27;20042;-88
2023/05/11 06:57:55;;;;;;;24.83;21.58;;;13.90;99.90;;;;;;5098062;27;20122;-89
2023/05/11 07:00:21;;;;;;;20.38;11.90;;;13.90;99.90;;;;;;5114928;27;20034;-88
2023/05/11 07:02:46;;;;;;;25.00;21.80;;;13.90;99.90;;;;;;5097996;27;20155;-89
2023/05/11 07:05:12;;;;;;;22.38;11.73;;;13.90;99.90;;;;;;5097840;27;20049;-88
2023/05/11 07:07:38;;;;;;;23.10;13.13;;;13.90;99.90;;;;;;5111725;27;20497;-89
2023/05/11 07:10:05;;;;;;;28.17;23.65;;;13.80;99.90;;;;;;5085639;28;20102;-88
2023/05/11 07:12:31;;;;;;;22.55;13.48;;;13.80;99.90;;;;;;5086151;27;20119;-87
2023/05/11 07:14:56;;;;;;;22.30;10.98;;;13.70;99.90;;;;;;5084342;28;20150;-88
2023/05/11 07:17:22;;;;;;;22.35;13.32;;;13.60;99.90;;;;;;5080039;28;20039;-88
2023/05/11 07:19:50;;;;;;;22.40;14.35;;;13.50;99.90;;;;;;5096475;28;20041;-88
2023/05/11 07:22:15;;;;;;;24.50;19.75;;;13.50;99.90;;;;;;5077527;28;20040;-88
2023/05/11 07:24:41;;;;;;;20.33;10.38;;;13.60;99.90;;;;;;5094877;28;20401;-88
2023/05/11 07:27:07;;;;;;;16.60;9.13;;;13.60;99.90;;;;;;5077470;28;20043;-87
2023/05/11 07:29:33;;;;;;;16.45;8.75;;;13.60;99.90;;;;;;5093939;28;20039;-87
2023/05/11 07:31:58;;;;;;;15.35;8.40;;;13.50;99.90;;;;;;5077213;28;20404;-88
2023/05/11 07:34:24;;;;;;;17.83;9.55;;;13.60;99.90;;;;;;5077471;28;20450;-88
2023/05/11 07:36:50;;;;;;;18.85;14.68;;;13.60;99.90;;;;;;5093960;28;20028;-88
2023/05/11 07:39:15;;;;;;;20.60;16.77;;;13.70;99.90;;;;;;5093355;28;20512;-88
2023/05/11 07:41:41;;;;;;;17.80;8.73;;;13.70;99.90;;;;;;5076930;28;20051;-88
2023/05/11 07:44:07;;;;;;;20.70;16.73;;;13.70;99.90;;;;;;5093977;28;20461;-89
2023/05/11 07:46:33;;;;;;;14.55;6.85;;;13.80;99.90;;;;;;5077546;28;20040;-88
2023/05/11 07:48:59;;;;;;;14.15;6.32;;;13.70;99.90;;;;;;5077796;28;20551;-88
2023/05/11 07:51:24;;;;;;;13.88;8.15;;;13.80;99.90;;;;;;5093909;28;20077;-88
2023/05/11 07:53:50;;;;;;;13.77;7.28;;;13.70;99.90;;;;;;5093621;28;20067;-88
2023/05/11 07:56:16;;;;;;;13.63;10.73;;;13.80;99.90;;;;;;5077031;28;20122;-88
2023/05/11 07:58:41;;;;;;;12.43;9.43;;;13.80;99.90;;;;;;5076278;28;20051;-88
2023/05/11 08:01:07;;;;;;;10.43;4.70;;;13.90;99.90;;;;;;5077209;28;20035;-88
2023/05/11 08:03:33;;;;;;;11.15;7.75;;;13.90;99.90;;;;;;5077193;28;20480;-88
2023/05/11 08:05:58;;;;;;;14.65;4.88;;;13.90;99.90;;;;;;5099624;28;20036;-88
2023/05/11 08:08:24;;;;;;;12.68;8.65;;;13.90;99.90;;;;;;5110440;28;20069;-88
2023/05/11 08:10:50;;;;;;;12.50;8.93;;;13.90;99.90;;;;;;5093362;27;20036;-88
2023/05/11 08:13:16;;;;;;;11.57;5.40;;;13.90;99.90;;;;;;5083647;28;20033;-88
2023/05/11 08:15:42;;;;;;;13.02;5.93;;;13.90;99.90;;;;;;5097558;28;20038;-88
2023/05/11 08:18:08;;;;;;;11.30;7.55;;;13.90;99.90;;;;;;5092709;28;20035;-87
2023/05/11 08:20:33;;;;;;;7.30;2.63;;;14.00;99.90;;;;;;5075961;28;20147;-88
2023/05/11 08:22:59;;;;;;;7.75;2.78;;;13.90;99.90;;;;;;5076300;28;20040;-88
2023/05/11 08:25:25;;;;;;;8.35;4.60;;;13.90;99.90;;;;;;5093696;28;20051;-88
2023/05/11 08:27:50;;;;;;;8.15;4.28;;;14.00;99.90;;;;;;5075242;28;20505;-88
2023/05/11 08:30:16;;;;;;;7.70;3.65;;;14.00;99.90;;;;;;5093231;28;20048;-88
2023/05/11 08:32:43;;;;;;;7.55;3.55;;;14.10;99.90;;;;;;5076533;28;20428;-88
2023/05/11 08:35:08;;;;;;;6.55;2.05;;;14.10;99.90;;;;;;5076580;28;20035;-88
2023/05/11 08:37:34;;;;;;;7.05;3.67;;;14.10;99.90;;;;;;5093234;28;20385;-89
2023/05/11 08:40:00;;;;;;;4.95;1.80;;;14.10;99.90;;;;;;5075172;28;20416;-88
2023/05/11 08:42:28;;;;;;;5.53;2.03;;;14.20;99.90;;;;;;5076042;28;20043;-88
2023/05/11 08:44:58;;;;;;;7.55;3.40;;;14.20;99.90;;;;;;5076151;28;20122;-88
2023/05/11 08:47:24;;;;;;;7.25;3.63;;;14.30;99.90;;;;;;5076661;28;20043;-88
2023/05/11 08:49:51;;;;;;;7.20;3.00;;;14.40;99.90;;;;;;5092812;28;20047;-87
2023/05/11 08:52:17;;;;;;;4.93;2.13;;;14.40;99.90;;;;;;5093517;28;20043;-88
2023/05/11 08:54:43;;;;;;;4.35;1.30;;;14.50;99.90;;;;;;5076213;28;20040;-88
2023/05/11 08:57:12;;;;;;;2.35;0.90;;;14.50;99.90;;;;;;5076341;28;20039;-87
2023/05/11 08:59:38;;;;;;;3.20;1.40;;;14.40;99.90;;;;;;5075779;28;20130;-87
2023/05/11 09:02:05;;;;;;;4.53;1.60;;;14.50;99.90;;;;;;5107084;28;20149;-88
2023/05/11 09:04:32;;;;;;;4.82;2.00;;;14.60;99.90;;;;;;5109323;28;20036;-88
2023/05/11 09:06:58;;;;;;;4.45;1.98;;;14.80;99.90;;;;;;5101895;28;20088;-88
2023/05/11 09:09:24;;;;;;;4.50;1.30;;;14.90;99.90;;;;;;5096429;28;20043;-88
2023/05/11 09:11:50;;;;;;;5.43;1.98;;;14.90;99.90;;;;;;5077738;28;20040;-88
2023/05/11 09:14:16;;;;;;;2.67;1.05;;;15.00;99.90;;;;;;5086404;28;20507;-88
2023/05/11 09:16:42;;;;;;;4.00;1.60;;;15.10;99.90;;;;;;5100122;28;20501;-88
2023/05/11 09:19:13;;;;;;;3.67;1.50;;;15.20;99.90;;;;;;5078503;28;20127;-88
2023/05/11 09:21:39;;;;;;;4.35;1.83;;;15.30;99.90;;;;;;5075967;28;20441;-87
2023/05/11 09:24:05;;;;;;;4.47;1.70;;;15.40;99.90;;;;;;5076099;28;20493;-88
2023/05/11 09:26:32;;;;;;;5.32;2.00;;;15.50;99.90;;;;;;5079261;28;20479;-87
2023/05/11 09:28:59;;;;;;;5.25;1.73;;;15.60;99.90;;;;;;5079842;28;20043;-88
2023/05/11 09:31:44;;;;;;;8.15;4.03;;;15.60;99.90;;;;;;5096681;28;20043;-89
2023/05/11 09:34:17;;;;;;;6.93;2.58;;;15.70;99.90;;;;;;5079799;28;20075;-88
2023/05/11 09:36:51;;;;;;;6.00;2.17;;;15.60;99.90;;;;;;5096484;28;20130;-88
2023/05/11 09:39:20;;;;;;;6.40;2.70;;;15.60;99.90;;;;;;5096340;28;20046;-88
2023/05/11 09:41:46;;;;;;;7.63;3.00;;;15.70;99.90;;;;;;5078890;28;20052;-88
2023/05/11 09:44:15;;;;;;;6.07;2.28;;;15.80;99.90;;;;;;5114332;28;20034;-88
2023/05/11 09:46:43;;;;;;;7.80;4.13;;;15.70;99.90;;;;;;5078066;28;20127;-88
2023/05/11 09:49:11;;;;;;;8.60;4.45;;;15.80;99.90;;;;;;5096289;28;20053;-88
2023/05/11 09:51:39;;;;;;;8.13;4.32;;;15.80;99.90;;;;;;5079053;28;20075;-87
2023/05/11 09:54:17;;;;;;;9.18;5.18;;;15.80;99.90;;;;;;5079888;28;20039;-88
2023/05/11 09:56:47;;;;;;;10.07;4.03;;;15.90;99.90;;;;;;5084859;28;20039;-88
2023/05/11 09:59:36;;;;;;;10.10;4.93;;;15.90;99.90;;;;;;5078803;28;20043;-89
2023/05/11 10:02:34;;;;;;;9.52;4.65;;;16.00;99.90;;;;;;5079170;28;20039;-88
2023/05/11 10:05:00;;;;;;;9.73;6.60;;;16.10;99.90;;;;;;5034870;28;20484;-88
2023/05/11 10:07:33;;;;;;;11.52;6.90;;;16.20;99.90;;;;;;5079182;28;20039;-88
2023/05/11 10:10:02;;;;;;;10.13;6.00;;;16.20;99.90;;;;;;5086146;27;20522;-88
2023/05/11 10:12:29;;;;;;;8.55;5.18;;;16.30;99.90;;;;;;5088359;28;20035;-88
2023/05/11 10:15:16;;;;;;;8.10;4.53;;;16.30;99.90;;;;;;5079417;28;20374;-88
2023/05/11 10:17:43;;;;;;;6.75;3.13;;;16.30;99.90;;;;;;5078624;28;20096;-88
2023/05/11 10:20:10;;;;;;;5.38;2.05;;;16.30;99.90;;;;;;5095358;28;20039;-88
2023/05/11 10:22:36;;;;;;;6.43;2.38;;;16.30;99.90;;;;;;5078972;28;20136;-88
2023/05/11 10:25:04;;;;;;;7.53;3.30;;;16.40;99.90;;;;;;5096060;28;20040;-88
2023/05/11 10:27:30;;;;;;;7.30;4.07;;;16.40;99.90;;;;;;5095859;28;20042;-88
2023/05/11 10:29:58;;;;;;;8.32;4.82;;;16.50;99.90;;;;;;5095314;28;20047;-89
2023/05/11 10:32:24;;;;;;;8.52;5.28;;;16.60;99.90;;;;;;5078419;28;20051;-88
2023/05/11 10:34:50;;;;;;;10.07;7.00;;;16.80;99.90;;;;;;5095432;28;20028;-89
2023/05/11 10:37:16;;;;;;;11.20;7.93;;;16.90;99.90;;;;;;5094996;28;20044;-88
2023/05/11 10:39:44;;;;;;;10.88;7.22;;;17.00;99.90;;;;;;5095199;28;20569;-89
2023/05/11 10:42:24;;;;;;;10.65;7.93;;;17.20;99.90;;;;;;5078267;28;20039;-88
2023/05/11 10:45:08;;;;;;;11.32;9.05;;;17.30;99.90;;;;;;5079029;28;20040;-89
2023/05/11 10:47:54;;;;;;;11.93;9.15;;;17.40;99.90;;;;;;5078412;28;20048;-89
2023/05/11 10:50:38;;;;;;;12.40;9.07;;;17.40;99.90;;;;;;5078666;28;20445;-89
2023/05/11 10:53:28;;;;;;;11.88;9.32;;;17.50;99.90;;;;;;5078253;28;20043;-89
2023/05/11 10:56:05;;;;;;;12.43;9.88;;;17.50;99.90;;;;;;5095474;28;20039;-89
2023/05/11 10:58:34;;;;;;;13.32;10.63;;;17.60;99.90;;;;;;5095195;28;20083;-89
2023/05/11 11:01:36;;;;;;;13.10;10.82;;;17.60;99.90;;;;;;5094541;28;20085;-89
2023/05/11 11:04:05;;;;;;;14.32;12.70;;;17.70;99.90;;;;;;5077985;28;20039;-89
2023/05/11 11:06:35;;;;;;;13.55;11.63;;;17.80;99.90;;;;;;5093964;28;20039;-89
2023/05/11 11:09:06;;;;;;;14.45;12.57;;;17.90;99.90;;;;;;5078120;28;20036;-89
2023/05/11 11:11:49;;;;;;;14.00;12.50;;;18.00;99.90;;;;;;5112804;28;20127;-89
2023/05/11 11:14:16;;;;;;;;;;;18.10;99.90;;;;;;5078863;28;20069;-88
2023/05/11 11:17:14;;;;;;;13.60;12.10;;;18.10;99.90;;;;;;5078027;28;19927;-88
2023/05/11 11:19:39;;;;;;;13.82;12.35;;;18.10;99.90;;;;;;5077212;28;20126;-88
2023/05/11 11:22:25;;;;;;;15.38;12.80;;;18.10;99.90;;;;;;5112695;28;20083;-89
2023/05/11 11:24:51;;;;;;;14.27;12.77;;;18.10;99.90;;;;;;5077380;28;20046;-89
2023/05/11 11:27:16;;;;;;;14.60;12.50;;;18.10;99.90;;;;;;5078103;28;20122;-88
2023/05/11 11:30:22;;;;;;;14.25;12.20;;;18.10;99.90;;;;;;5077597;28;20051;-88
2023/05/11 11:32:53;;;;;;;15.40;12.80;;;18.10;99.90;;;;;;5077282;28;20463;-88
2023/05/11 11:35:38;;;;;;;14.05;12.55;;;18.00;99.90;;;;;;5077488;28;20035;-88
2023/05/11 11:38:05;;;;;;;14.60;12.63;;;18.00;99.90;;;;;;5077142;28;20529;-88
2023/05/11 11:40:38;;;;;;;14.90;13.20;;;18.00;99.90;;;;;;5092804;28;20493;-89
2023/05/11 11:43:37;;;;;;;15.13;13.52;;;18.00;99.90;;;;;;5112864;28;20092;-88
2023/05/11 11:46:02;;;;;;;14.82;13.32;;;18.00;99.90;;;;;;5111753;28;20043;-88
2023/05/11 11:48:28;;;;;;;15.70;14.07;;;18.00;99.90;;;;;;5076798;28;20046;-88
2023/05/11 11:51:11;;;;;;;14.90;13.40;;;18.00;99.90;;;;;;5077420;28;20193;-89
2023/05/11 11:53:39;;;;;;;17.60;13.82;;;18.00;99.90;;;;;;5077827;28;20501;-88
2023/05/11 11:56:28;;;;;;;15.00;12.88;;;18.00;99.90;;;;;;5077468;28;20036;-88
2023/05/11 11:59:02;;;;;;;16.02;13.90;;;18.10;99.90;;;;;;5063089;28;20051;-89
2023/05/11 12:01:33;;;;;;;16.40;14.45;;;18.10;99.90;;;;;;5094071;28;20039;-89
2023/05/11 12:04:18;;;;;;;14.15;12.38;;;18.10;99.90;;;;;;5094601;28;20036;-89
2023/05/11 12:06:48;;;;;;;14.13;12.57;;;18.10;99.90;;;;;;5092734;28;20453;-89
2023/05/11 12:09:17;;;;;;;15.38;13.75;;;18.10;99.90;;;;;;5092729;28;20043;-88
2023/05/11 12:11:45;;;;;;;15.30;13.18;;;18.10;99.90;;;;;;5076007;28;20044;-88
2023/05/11 12:14:11;;;;;;;15.57;13.98;;;18.20;99.90;;;;;;5076702;28;20061;-88
2023/05/11 12:16:37;;;;;;;14.07;12.68;;;18.20;99.90;;;;;;5076937;28;20032;-88
2023/05/11 12:19:03;;;;;;;14.88;13.15;;;18.20;99.90;;;;;;5093729;28;20112;-88
2023/05/11 12:21:30;;;;;;;16.40;13.35;;;18.30;99.90;;;;;;5077043;28;20048;-89
2023/05/11 12:24:01;;;;;;;13.80;12.32;;;18.40;99.90;;;;;;5093621;28;20100;-88
2023/05/11 12:26:29;;;;;;;14.63;12.48;;;18.50;99.90;;;;;;5093477;28;20039;-88
2023/05/11 12:29:09;;;;;;;14.57;12.60;;;18.50;99.90;;;;;;5111430;28;20040;-88
2023/05/11 12:31:36;;;;;;;14.30;12.75;;;18.50;99.90;;;;;;5076018;28;20436;-88
2023/05/11 12:34:02;;;;;;;13.68;12.27;;;18.60;99.90;;;;;;5076421;28;20089;-88
2023/05/11 12:36:28;;;;;;;14.15;12.65;;;18.70;99.90;;;;;;5076806;28;20039;-88
2023/05/11 12:38:54;;;;;;;14.55;12.73;;;18.70;99.90;;;;;;5077090;28;20058;-88